createdAt,value
2023-03-06T00:01:29.905Z,34.67
2023-03-06T00:03:57.508Z,35.47
2023-03-06T00:06:26.536Z,33.83
2023-03-06T00:08:56.787Z,35.58
2023-03-06T00:11:27.476Z,35.08
2023-03-06T00:13:55.575Z,34.78
2023-03-06T00:16:23.450Z,34.30
2023-03-06T00:18:51.236Z,34.85
2023-03-06T00:21:19.035Z,34.80
2023-03-06T00:23:49.516Z,33.78
2023-03-06T00:26:17.203Z,36.00
2023-03-06T00:28:44.852Z,36.78
2023-03-06T00:31:12.456Z,39.33
2023-03-06T00:33:39.989Z,39.92
2023-03-06T00:36:09.374Z,38.45
2023-03-06T00:38:37.367Z,38.53
2023-03-06T00:41:09.712Z,37.10
2023-03-06T00:43:37.978Z,38.17
2023-03-06T00:46:06.322Z,34.90
2023-03-06T00:48:34.619Z,34.60
2023-03-06T00:51:03.999Z,36.00
2023-03-06T00:53:31.847Z,36.63
2023-03-06T00:56:05.564Z,38.17
2023-03-06T00:58:33.131Z,35.88
2023-03-06T01:01:00.987Z,34.88
2023-03-06T01:03:28.616Z,34.03
2023-03-06T01:05:57.362Z,36.38
2023-03-06T01:08:24.914Z,36.78
2023-03-06T01:10:52.448Z,35.58
2023-03-06T01:13:21.279Z,36.40
2023-03-06T01:15:48.962Z,34.88
2023-03-06T01:18:16.580Z,36.80
2023-03-06T01:20:44.031Z,35.90
2023-03-06T01:23:11.698Z,36.55
2023-03-06T01:25:39.225Z,37.97
2023-03-06T01:28:06.645Z,37.50
2023-03-06T01:30:34.251Z,36.00
2023-03-06T01:33:01.900Z,35.97
2023-03-06T01:35:32.014Z,36.10
2023-03-06T01:37:59.671Z,36.13
2023-03-06T01:40:34.313Z,37.60
2023-03-06T01:43:26.862Z,38.20
2023-03-06T01:46:16.342Z,37.58
2023-03-06T01:48:44.897Z,37.45
2023-03-06T01:51:12.663Z,35.97
2023-03-06T01:53:41.614Z,36.40
2023-03-06T01:56:11.376Z,35.38
2023-03-06T01:58:40.216Z,34.38
2023-03-06T02:01:09.973Z,35.13
2023-03-06T02:03:39.535Z,35.28
2023-03-06T02:06:08.120Z,35.05
2023-03-06T02:08:35.933Z,35.03
2023-03-06T02:11:17.646Z,35.22
2023-03-06T02:13:46.756Z,35.65
2023-03-06T02:16:16.467Z,35.30
2023-03-06T02:18:47.150Z,35.25
2023-03-06T02:21:28.645Z,35.17
2023-03-06T02:24:29.663Z,34.40
2023-03-06T02:26:59.249Z,33.75
2023-03-06T02:29:29.387Z,34.28
2023-03-06T02:32:01.464Z,34.30
2023-03-06T02:34:29.442Z,33.03
2023-03-06T02:37:09.129Z,31.98
2023-03-06T02:40:00.499Z,33.28
2023-03-06T02:42:29.046Z,34.13
2023-03-06T02:44:59.339Z,34.78
2023-03-06T02:47:26.931Z,34.08
2023-03-06T02:49:55.126Z,34.17
2023-03-06T02:52:22.551Z,34.28
2023-03-06T02:54:50.091Z,34.47
2023-03-06T02:57:17.953Z,32.97
2023-03-06T02:59:46.228Z,33.15
2023-03-06T03:02:13.987Z,34.55
2023-03-06T03:04:41.545Z,32.63
2023-03-06T03:07:10.870Z,33.92
2023-03-06T03:09:38.895Z,32.00
2023-03-06T03:12:07.419Z,32.78
2023-03-06T03:14:35.769Z,33.30
2023-03-06T03:17:04.138Z,33.22
2023-03-06T03:19:31.668Z,32.83
2023-03-06T03:21:59.412Z,33.28
2023-03-06T03:24:27.545Z,34.42
2023-03-06T03:26:55.904Z,32.13
2023-03-06T03:29:25.771Z,32.33
2023-03-06T03:31:54.298Z,33.42
2023-03-06T03:34:28.899Z,32.75
2023-03-06T03:36:59.589Z,33.75
2023-03-06T03:39:28.478Z,32.42
2023-03-06T03:42:00.127Z,33.58
2023-03-06T03:44:31.067Z,31.90
2023-03-06T03:47:01.230Z,32.42
2023-03-06T03:49:28.969Z,32.30
2023-03-06T03:51:56.970Z,32.05
2023-03-06T03:54:26.484Z,31.15
2023-03-06T03:56:55.028Z,31.60
2023-03-06T03:59:29.762Z,30.67
2023-03-06T04:02:05.890Z,30.73
2023-03-06T04:04:39.230Z,30.60
2023-03-06T04:07:07.350Z,30.48
2023-03-06T04:09:34.989Z,30.25
2023-03-06T04:12:06.535Z,30.27
2023-03-06T04:14:36.106Z,30.05
2023-03-06T04:17:05.454Z,29.15
2023-03-06T04:19:33.569Z,29.65
2023-03-06T04:22:02.457Z,29.20
2023-03-06T04:24:32.166Z,31.50
2023-03-06T04:27:00.131Z,30.35
2023-03-06T04:29:37.583Z,29.40
2023-03-06T04:32:05.405Z,29.40
2023-03-06T04:34:33.161Z,30.38
2023-03-06T04:37:01.473Z,31.20
2023-03-06T04:39:34.016Z,30.98
2023-03-06T04:42:02.791Z,32.78
2023-03-06T04:44:33.072Z,33.33
2023-03-06T04:47:00.760Z,33.58
2023-03-06T04:49:28.263Z,35.58
2023-03-06T04:52:01.014Z,35.60
2023-03-06T04:54:28.722Z,39.60
2023-03-06T04:56:56.308Z,42.20
2023-03-06T04:59:23.825Z,43.85
2023-03-06T05:01:51.477Z,44.13
2023-03-06T05:04:18.976Z,45.33
2023-03-06T05:06:47.574Z,45.42
2023-03-06T05:09:15.587Z,44.50
2023-03-06T05:11:43.192Z,44.42
2023-03-06T05:14:10.619Z,45.03
2023-03-06T05:16:38.188Z,44.38
2023-03-06T05:19:05.719Z,44.92
2023-03-06T05:21:33.183Z,48.20
2023-03-06T05:24:00.710Z,47.38
2023-03-06T05:26:28.197Z,46.45
2023-03-06T05:28:55.714Z,48.58
2023-03-06T05:31:25.055Z,46.22
2023-03-06T05:34:01.943Z,48.38
2023-03-06T05:36:34.673Z,48.65
2023-03-06T05:45:30.639Z,48.90
2023-03-06T05:47:58.341Z,48.58
2023-03-06T05:50:32.336Z,48.63
2023-03-06T05:53:00.304Z,48.40
2023-03-06T05:55:27.979Z,50.30
2023-03-06T05:57:55.577Z,49.80
2023-03-06T06:00:25.558Z,50.97
2023-03-06T06:02:53.489Z,49.25
2023-03-06T06:05:21.590Z,49.42
2023-03-06T06:07:54.259Z,50.08
2023-03-06T06:10:53.230Z,49.88
2023-03-06T06:13:21.526Z,50.05
2023-03-06T06:16:53.671Z,50.67
2023-03-06T06:25:42.960Z,48.83
2023-03-06T06:28:17.793Z,49.90
2023-03-06T06:40:22.958Z,50.75
2023-03-06T06:43:16.181Z,50.63
2023-03-06T06:46:44.654Z,50.50
2023-03-06T06:54:03.790Z,46.75
2023-03-06T06:56:57.277Z,48.08
2023-03-06T06:59:54.113Z,47.83
2023-03-06T07:02:22.985Z,45.90
2023-03-06T07:05:04.225Z,45.85
2023-03-06T07:07:38.193Z,47.50
2023-03-06T07:10:08.469Z,45.70
2023-03-06T07:12:39.375Z,46.15
2023-03-06T07:15:08.181Z,44.45
2023-03-06T07:17:35.813Z,42.63
2023-03-06T07:20:04.018Z,44.90
2023-03-06T07:22:38.717Z,44.78
2023-03-06T07:25:16.186Z,44.45
2023-03-06T07:27:46.992Z,43.70
2023-03-06T07:30:21.002Z,42.90
2023-03-06T07:32:48.482Z,42.65
2023-03-06T07:35:20.315Z,42.47
2023-03-06T07:37:48.362Z,43.05
2023-03-06T07:40:16.761Z,44.25
2023-03-06T07:42:44.146Z,44.08
2023-03-06T07:45:14.041Z,41.10
2023-03-06T07:47:43.174Z,41.67
2023-03-06T07:50:11.253Z,42.75
2023-03-06T07:52:38.683Z,44.25
2023-03-06T07:55:06.693Z,42.50
2023-03-06T07:57:34.211Z,43.17
2023-03-06T08:00:01.688Z,42.60
2023-03-06T08:02:29.086Z,42.70
2023-03-06T08:04:57.008Z,43.00
2023-03-06T08:07:24.418Z,44.65
2023-03-06T08:09:52.184Z,42.47
2023-03-06T08:12:19.633Z,44.83
2023-03-06T08:14:47.149Z,43.97
2023-03-06T08:17:14.649Z,45.03
2023-03-06T08:19:42.045Z,43.63
2023-03-06T08:22:11.199Z,45.03
2023-03-06T08:24:38.631Z,44.70
2023-03-06T08:27:07.117Z,45.72
2023-03-06T08:29:35.674Z,43.78
2023-03-06T08:32:03.319Z,45.28
2023-03-06T08:34:30.814Z,43.55
2023-03-06T08:36:58.250Z,43.45
2023-03-06T08:39:25.619Z,44.20
2023-03-06T08:41:53.023Z,46.58
2023-03-06T08:44:20.412Z,45.92
2023-03-06T08:46:47.859Z,44.53
2023-03-06T08:49:15.433Z,44.42
2023-03-06T08:51:43.106Z,45.08
2023-03-06T08:54:12.705Z,43.63
2023-03-06T08:56:40.531Z,43.63
2023-03-06T08:59:09.466Z,44.08
2023-03-06T09:01:38.219Z,43.88
2023-03-06T09:04:09.082Z,41.72
2023-03-06T09:06:40.108Z,41.03
2023-03-06T09:09:08.258Z,40.50
2023-03-06T09:11:36.061Z,40.58
2023-03-06T09:14:05.642Z,40.47
2023-03-06T09:16:33.423Z,39.88
2023-03-06T09:19:01.049Z,40.05
2023-03-06T09:21:28.766Z,40.95
2023-03-06T09:23:56.324Z,40.65
2023-03-06T09:26:32.771Z,38.80
2023-03-06T09:29:07.942Z,39.13
2023-03-06T09:31:35.506Z,37.78
2023-03-06T09:34:03.002Z,38.28
2023-03-06T09:36:30.489Z,38.97
2023-03-06T09:38:57.977Z,38.80
2023-03-06T09:41:27.529Z,37.13
2023-03-06T09:44:05.185Z,36.97
2023-03-06T09:46:44.681Z,36.42
2023-03-06T09:49:30.538Z,36.08
2023-03-06T09:54:46.493Z,32.78
2023-03-06T09:57:34.078Z,33.22
2023-03-06T10:00:11.786Z,34.47
2023-03-06T10:02:45.337Z,31.65
2023-03-06T10:05:26.229Z,31.55
2023-03-06T10:08:04.114Z,31.73
2023-03-06T10:10:46.802Z,29.23
2023-03-06T10:13:28.519Z,31.98
2023-03-06T10:16:04.663Z,33.60
2023-03-06T10:18:32.335Z,33.03
2023-03-06T10:21:18.748Z,32.15
2023-03-06T10:23:58.599Z,31.42
2023-03-06T10:26:32.656Z,28.60
2023-03-06T10:29:34.102Z,29.52
2023-03-06T10:32:13.789Z,27.70
2023-03-06T10:34:43.350Z,29.70
2023-03-06T10:37:31.581Z,31.40
2023-03-06T10:40:12.526Z,31.52
2023-03-06T10:42:40.016Z,31.00
2023-03-06T10:45:12.106Z,31.88
2023-03-06T10:47:40.416Z,30.30
2023-03-06T10:50:30.705Z,30.98
2023-03-06T10:53:07.139Z,29.73
2023-03-06T10:55:37.942Z,29.67
2023-03-06T10:58:32.490Z,29.48
2023-03-06T11:01:11.868Z,30.48
2023-03-06T11:03:39.565Z,30.02
2023-03-06T11:06:13.780Z,28.73
2023-03-06T11:08:44.523Z,30.17
2023-03-06T11:11:18.548Z,29.90
2023-03-06T11:13:59.074Z,28.80
2023-03-06T11:16:30.708Z,29.23
2023-03-06T11:19:17.702Z,28.30
2023-03-06T11:22:00.176Z,28.83
2023-03-06T11:24:37.392Z,27.27
2023-03-06T11:27:34.576Z,27.50
2023-03-06T11:30:46.398Z,26.10
2023-03-06T11:33:29.483Z,24.60
2023-03-06T11:36:14.015Z,25.73
2023-03-06T11:39:00.020Z,25.38
2023-03-06T11:41:54.249Z,25.50
2023-03-06T11:44:24.404Z,25.77
2023-03-06T11:47:13.960Z,24.75
2023-03-06T11:50:06.067Z,24.95
2023-03-06T11:52:54.094Z,24.73
2023-03-06T11:55:36.270Z,24.65
2023-03-06T11:58:12.919Z,25.55
2023-03-06T12:01:06.304Z,23.83
2023-03-06T12:04:19.728Z,23.38
2023-03-06T12:07:05.596Z,22.90
2023-03-06T12:10:23.676Z,23.63
2023-03-06T12:16:17.104Z,23.35
2023-03-06T12:18:57.032Z,22.80
2023-03-06T12:21:36.436Z,22.42
2023-03-06T12:24:31.753Z,22.52
2023-03-06T12:27:13.282Z,24.33
2023-03-06T12:29:59.221Z,22.63
2023-03-06T12:35:22.759Z,21.95
2023-03-06T12:38:05.518Z,22.73
2023-03-06T12:40:48.387Z,23.50
2023-03-06T12:43:27.668Z,22.25
2023-03-06T12:46:02.275Z,20.98
2023-03-06T12:48:35.272Z,20.33
2023-03-06T12:51:06.666Z,21.38
2023-03-06T12:53:36.036Z,21.58
2023-03-06T12:56:23.920Z,20.38
2023-03-06T12:59:02.772Z,20.25
2023-03-06T13:01:46.692Z,22.20
2023-03-06T13:04:36.084Z,21.08
2023-03-06T13:07:23.027Z,20.67
2023-03-06T13:10:09.005Z,22.08
2023-03-06T13:12:50.007Z,21.30
2023-03-06T13:16:11.509Z,22.08
2023-03-06T13:23:31.136Z,22.58
2023-03-06T13:28:48.773Z,21.23
2023-03-06T13:31:34.289Z,22.30
2023-03-06T13:34:36.766Z,21.77
2023-03-06T13:37:19.980Z,21.15
2023-03-06T13:39:59.195Z,20.30
2023-03-06T13:42:31.160Z,20.38
2023-03-06T13:45:08.859Z,19.95
2023-03-06T13:48:06.550Z,20.23
2023-03-06T13:50:36.253Z,19.13
2023-03-06T13:53:16.069Z,19.92
2023-03-06T13:56:17.141Z,21.30
2023-03-06T13:59:02.555Z,21.08
2023-03-06T14:01:42.192Z,21.45
2023-03-06T14:04:25.124Z,21.05
2023-03-06T14:07:05.629Z,21.20
2023-03-06T14:09:45.482Z,21.55
2023-03-06T14:12:26.065Z,19.85
2023-03-06T14:14:58.233Z,21.08
2023-03-06T14:17:32.814Z,21.55
2023-03-06T14:20:05.826Z,21.13
2023-03-06T14:22:33.521Z,19.73
2023-03-06T14:25:08.017Z,20.92
2023-03-06T14:27:45.255Z,20.43
2023-03-06T14:30:16.511Z,21.90
2023-03-06T14:32:44.963Z,19.80
2023-03-06T14:35:38.577Z,21.65
2023-03-06T18:51:53.163Z,21.30
